sensor_id;sensor_type;location;lat;lon;timestamp;P1;durP1;ratioP1;P2;durP2;ratioP2
77105;SDS011;66057;54.718;18.426;2023-09-19T00:00:22;18.80;;;12.73;;
77105;SDS011;66057;54.718;18.426;2023-09-19T00:03:13;17.73;;;13.32;;
77105;SDS011;66057;54.718;18.426;2023-09-19T00:05:39;17.15;;;12.82;;
77105;SDS011;66057;54.718;18.426;2023-09-19T00:08:09;16.65;;;12.55;;
77105;SDS011;66057;54.718;18.426;2023-09-19T00:13:04;20.73;;;13.82;;
77105;SDS011;66057;54.718;18.426;2023-09-19T00:15:40;19.65;;;14.70;;
77105;SDS011;66057;54.718;18.426;2023-09-19T00:18:08;20.45;;;14.07;;
77105;SDS011;66057;54.718;18.426;2023-09-19T00:20:37;20.05;;;13.73;;
77105;SDS011;66057;54.718;18.426;2023-09-19T00:23:07;18.88;;;12.38;;
77105;SDS011;66057;54.718;18.426;2023-09-19T00:25:36;19.38;;;13.20;;
77105;SDS011;66057;54.718;18.426;2023-09-19T00:28:03;18.15;;;12.27;;
77105;SDS011;66057;54.718;18.426;2023-09-19T00:30:31;23.10;;;13.15;;
77105;SDS011;66057;54.718;18.426;2023-09-19T00:32:56;17.42;;;11.85;;
77105;SDS011;66057;54.718;18.426;2023-09-19T00:35:23;17.38;;;12.25;;
77105;SDS011;66057;54.718;18.426;2023-09-19T00:37:49;19.00;;;12.35;;
77105;SDS011;66057;54.718;18.426;2023-09-19T00:42:45;15.55;;;11.98;;
77105;SDS011;66057;54.718;18.426;2023-09-19T00:45:15;19.55;;;12.45;;
77105;SDS011;66057;54.718;18.426;2023-09-19T00:47:49;17.83;;;12.80;;
77105;SDS011;66057;54.718;18.426;2023-09-19T00:50:19;15.43;;;11.20;;
77105;SDS011;66057;54.718;18.426;2023-09-19T00:52:47;16.73;;;12.32;;
77105;SDS011;66057;54.718;18.426;2023-09-19T00:55:16;20.48;;;13.63;;
77105;SDS011;66057;54.718;18.426;2023-09-19T00:57:45;18.90;;;14.43;;
77105;SDS011;66057;54.718;18.426;2023-09-19T01:00:12;22.20;;;14.52;;
77105;SDS011;66057;54.718;18.426;2023-09-19T01:02:44;18.60;;;14.38;;
77105;SDS011;66057;54.718;18.426;2023-09-19T01:05:12;20.77;;;13.82;;
77105;SDS011;66057;54.718;18.426;2023-09-19T01:07:41;17.58;;;13.50;;
77105;SDS011;66057;54.718;18.426;2023-09-19T01:10:13;20.08;;;13.45;;
77105;SDS011;66057;54.718;18.426;2023-09-19T01:15:47;20.25;;;15.02;;
77105;SDS011;66057;54.718;18.426;2023-09-19T01:23:18;21.10;;;15.38;;
77105;SDS011;66057;54.718;18.426;2023-09-19T01:26:04;22.40;;;14.50;;
77105;SDS011;66057;54.718;18.426;2023-09-19T01:28:34;24.08;;;15.52;;
77105;SDS011;66057;54.718;18.426;2023-09-19T01:31:24;24.63;;;17.20;;
77105;SDS011;66057;54.718;18.426;2023-09-19T01:33:54;23.17;;;16.05;;
77105;SDS011;66057;54.718;18.426;2023-09-19T01:36:23;23.52;;;15.73;;
77105;SDS011;66057;54.718;18.426;2023-09-19T01:41:21;21.52;;;14.65;;
77105;SDS011;66057;54.718;18.426;2023-09-19T01:43:52;21.70;;;14.43;;
77105;SDS011;66057;54.718;18.426;2023-09-19T01:46:24;20.13;;;14.05;;
77105;SDS011;66057;54.718;18.426;2023-09-19T01:49:01;25.27;;;14.40;;
77105;SDS011;66057;54.718;18.426;2023-09-19T01:54:45;18.08;;;12.57;;
77105;SDS011;66057;54.718;18.426;2023-09-19T01:57:29;21.40;;;12.05;;
77105;SDS011;66057;54.718;18.426;2023-09-19T02:00:01;20.45;;;12.18;;
77105;SDS011;66057;54.718;18.426;2023-09-19T02:02:36;20.92;;;12.90;;
77105;SDS011;66057;54.718;18.426;2023-09-19T02:05:03;18.17;;;12.27;;
77105;SDS011;66057;54.718;18.426;2023-09-19T02:07:30;17.33;;;12.23;;
77105;SDS011;66057;54.718;18.426;2023-09-19T02:09:59;17.33;;;11.65;;
77105;SDS011;66057;54.718;18.426;2023-09-19T02:12:28;18.48;;;11.35;;
77105;SDS011;66057;54.718;18.426;2023-09-19T02:14:56;18.23;;;11.63;;
77105;SDS011;66057;54.718;18.426;2023-09-19T02:17:23;16.95;;;11.95;;
77105;SDS011;66057;54.718;18.426;2023-09-19T02:19:52;20.15;;;10.77;;
77105;SDS011;66057;54.718;18.426;2023-09-19T02:22:20;17.17;;;10.93;;
77105;SDS011;66057;54.718;18.426;2023-09-19T02:24:50;15.68;;;9.48;;
77105;SDS011;66057;54.718;18.426;2023-09-19T02:27:16;15.73;;;9.25;;
77105;SDS011;66057;54.718;18.426;2023-09-19T02:29:47;15.13;;;8.68;;
77105;SDS011;66057;54.718;18.426;2023-09-19T02:32:15;14.90;;;8.02;;
77105;SDS011;66057;54.718;18.426;2023-09-19T02:34:43;12.18;;;7.95;;
77105;SDS011;66057;54.718;18.426;2023-09-19T02:37:10;10.02;;;6.82;;
77105;SDS011;66057;54.718;18.426;2023-09-19T02:39:38;10.35;;;6.35;;
77105;SDS011;66057;54.718;18.426;2023-09-19T02:44:30;9.93;;;6.13;;
77105;SDS011;66057;54.718;18.426;2023-09-19T02:49:22;7.38;;;5.15;;
77105;SDS011;66057;54.718;18.426;2023-09-19T02:51:49;6.82;;;5.07;;
77105;SDS011;66057;54.718;18.426;2023-09-19T02:54:15;10.23;;;5.30;;
77105;SDS011;66057;54.718;18.426;2023-09-19T02:56:46;7.95;;;4.40;;
77105;SDS011;66057;54.718;18.426;2023-09-19T02:59:12;7.65;;;5.03;;
77105;SDS011;66057;54.718;18.426;2023-09-19T03:01:45;8.77;;;4.55;;
77105;SDS011;66057;54.718;18.426;2023-09-19T03:04:13;7.90;;;4.65;;
77105;SDS011;66057;54.718;18.426;2023-09-19T03:06:45;7.72;;;4.53;;
77105;SDS011;66057;54.718;18.426;2023-09-19T03:09:11;7.45;;;4.18;;
77105;SDS011;66057;54.718;18.426;2023-09-19T03:11:38;8.63;;;4.57;;
77105;SDS011;66057;54.718;18.426;2023-09-19T03:14:05;6.65;;;4.18;;
77105;SDS011;66057;54.718;18.426;2023-09-19T03:16:31;6.32;;;3.80;;
77105;SDS011;66057;54.718;18.426;2023-09-19T03:18:57;7.57;;;4.13;;
77105;SDS011;66057;54.718;18.426;2023-09-19T03:21:26;7.85;;;3.75;;
77105;SDS011;66057;54.718;18.426;2023-09-19T03:23:54;6.55;;;3.75;;
77105;SDS011;66057;54.718;18.426;2023-09-19T03:26:20;8.82;;;4.72;;
77105;SDS011;66057;54.718;18.426;2023-09-19T03:28:46;7.43;;;4.07;;
77105;SDS011;66057;54.718;18.426;2023-09-19T03:31:12;7.40;;;3.75;;
77105;SDS011;66057;54.718;18.426;2023-09-19T03:33:38;6.97;;;3.80;;
77105;SDS011;66057;54.718;18.426;2023-09-19T03:36:04;8.48;;;3.60;;
77105;SDS011;66057;54.718;18.426;2023-09-19T03:38:30;4.82;;;3.00;;
77105;SDS011;66057;54.718;18.426;2023-09-19T03:40:56;4.43;;;3.10;;
77105;SDS011;66057;54.718;18.426;2023-09-19T03:43:22;11.73;;;4.22;;
77105;SDS011;66057;54.718;18.426;2023-09-19T03:45:48;8.00;;;2.90;;
77105;SDS011;66057;54.718;18.426;2023-09-19T03:48:14;6.10;;;3.20;;
77105;SDS011;66057;54.718;18.426;2023-09-19T03:50:40;8.18;;;3.05;;
77105;SDS011;66057;54.718;18.426;2023-09-19T03:53:05;6.95;;;3.78;;
77105;SDS011;66057;54.718;18.426;2023-09-19T03:55:33;4.30;;;2.80;;
77105;SDS011;66057;54.718;18.426;2023-09-19T03:58:03;5.88;;;2.70;;
77105;SDS011;66057;54.718;18.426;2023-09-19T04:00:30;5.70;;;3.05;;
77105;SDS011;66057;54.718;18.426;2023-09-19T04:02:56;6.90;;;3.13;;
77105;SDS011;66057;54.718;18.426;2023-09-19T04:05:22;6.57;;;3.03;;
77105;SDS011;66057;54.718;18.426;2023-09-19T04:07:48;6.55;;;3.58;;
77105;SDS011;66057;54.718;18.426;2023-09-19T04:10:15;8.55;;;3.35;;
77105;SDS011;66057;54.718;18.426;2023-09-19T04:12:50;4.95;;;3.40;;
77105;SDS011;66057;54.718;18.426;2023-09-19T04:15:20;7.50;;;3.28;;
77105;SDS011;66057;54.718;18.426;2023-09-19T04:17:47;7.95;;;4.00;;
77105;SDS011;66057;54.718;18.426;2023-09-19T04:20:13;7.13;;;3.47;;
77105;SDS011;66057;54.718;18.426;2023-09-19T04:22:39;5.88;;;3.33;;
77105;SDS011;66057;54.718;18.426;2023-09-19T04:25:05;6.63;;;3.10;;
77105;SDS011;66057;54.718;18.426;2023-09-19T04:27:33;6.80;;;3.63;;
77105;SDS011;66057;54.718;18.426;2023-09-19T04:32:30;6.70;;;3.30;;
77105;SDS011;66057;54.718;18.426;2023-09-19T04:34:58;8.63;;;3.72;;
77105;SDS011;66057;54.718;18.426;2023-09-19T04:37:25;6.95;;;3.83;;
77105;SDS011;66057;54.718;18.426;2023-09-19T04:42:17;5.03;;;3.22;;
77105;SDS011;66057;54.718;18.426;2023-09-19T04:44:43;6.00;;;3.22;;
77105;SDS011;66057;54.718;18.426;2023-09-19T04:47:08;6.82;;;3.50;;
77105;SDS011;66057;54.718;18.426;2023-09-19T04:49:34;7.22;;;3.75;;
77105;SDS011;66057;54.718;18.426;2023-09-19T04:52:00;6.28;;;3.53;;
77105;SDS011;66057;54.718;18.426;2023-09-19T04:54:26;8.20;;;3.30;;
77105;SDS011;66057;54.718;18.426;2023-09-19T04:56:52;14.75;;;7.00;;
77105;SDS011;66057;54.718;18.426;2023-09-19T04:59:18;13.65;;;5.65;;
77105;SDS011;66057;54.718;18.426;2023-09-19T05:01:43;5.53;;;3.42;;
77105;SDS011;66057;54.718;18.426;2023-09-19T05:04:09;6.70;;;3.17;;
77105;SDS011;66057;54.718;18.426;2023-09-19T05:06:35;8.00;;;3.78;;
77105;SDS011;66057;54.718;18.426;2023-09-19T05:09:01;7.32;;;3.65;;
77105;SDS011;66057;54.718;18.426;2023-09-19T05:11:30;7.18;;;4.07;;
77105;SDS011;66057;54.718;18.426;2023-09-19T05:13:56;10.73;;;3.90;;
77105;SDS011;66057;54.718;18.426;2023-09-19T05:16:21;8.93;;;4.10;;
77105;SDS011;66057;54.718;18.426;2023-09-19T05:18:47;9.80;;;4.43;;
77105;SDS011;66057;54.718;18.426;2023-09-19T05:21:14;7.32;;;4.53;;
77105;SDS011;66057;54.718;18.426;2023-09-19T05:23:40;11.02;;;4.82;;
77105;SDS011;66057;54.718;18.426;2023-09-19T05:26:07;11.63;;;4.22;;
77105;SDS011;66057;54.718;18.426;2023-09-19T05:28:33;6.53;;;3.65;;
77105;SDS011;66057;54.718;18.426;2023-09-19T05:31:00;7.72;;;3.53;;
77105;SDS011;66057;54.718;18.426;2023-09-19T05:33:27;10.27;;;4.40;;
77105;SDS011;66057;54.718;18.426;2023-09-19T05:35:53;7.22;;;3.75;;
77105;SDS011;66057;54.718;18.426;2023-09-19T05:38:19;6.38;;;3.58;;
77105;SDS011;66057;54.718;18.426;2023-09-19T05:40:45;7.45;;;3.33;;
77105;SDS011;66057;54.718;18.426;2023-09-19T05:43:12;7.25;;;4.50;;
77105;SDS011;66057;54.718;18.426;2023-09-19T05:45:39;6.20;;;2.72;;
77105;SDS011;66057;54.718;18.426;2023-09-19T05:48:12;4.75;;;2.80;;
77105;SDS011;66057;54.718;18.426;2023-09-19T05:53:05;6.43;;;2.58;;
77105;SDS011;66057;54.718;18.426;2023-09-19T05:55:40;5.60;;;2.75;;
77105;SDS011;66057;54.718;18.426;2023-09-19T06:00:31;4.95;;;2.65;;
77105;SDS011;66057;54.718;18.426;2023-09-19T06:02:58;7.43;;;2.38;;
77105;SDS011;66057;54.718;18.426;2023-09-19T06:05:25;6.53;;;3.00;;
77105;SDS011;66057;54.718;18.426;2023-09-19T06:07:55;5.20;;;2.10;;
77105;SDS011;66057;54.718;18.426;2023-09-19T06:10:25;9.55;;;2.60;;
77105;SDS011;66057;54.718;18.426;2023-09-19T06:12:53;5.95;;;2.80;;
77105;SDS011;66057;54.718;18.426;2023-09-19T06:15:20;4.82;;;2.60;;
77105;SDS011;66057;54.718;18.426;2023-09-19T06:17:49;6.45;;;2.67;;
77105;SDS011;66057;54.718;18.426;2023-09-19T06:20:19;7.75;;;3.20;;
77105;SDS011;66057;54.718;18.426;2023-09-19T06:22:45;5.18;;;3.05;;
77105;SDS011;66057;54.718;18.426;2023-09-19T06:25:11;6.18;;;3.25;;
77105;SDS011;66057;54.718;18.426;2023-09-19T06:27:48;9.00;;;3.50;;
77105;SDS011;66057;54.718;18.426;2023-09-19T06:30:19;10.60;;;3.85;;
77105;SDS011;66057;54.718;18.426;2023-09-19T06:32:46;6.45;;;3.30;;
77105;SDS011;66057;54.718;18.426;2023-09-19T06:37:40;9.30;;;3.40;;
77105;SDS011;66057;54.718;18.426;2023-09-19T06:40:13;5.13;;;3.08;;
77105;SDS011;66057;54.718;18.426;2023-09-19T06:42:40;6.63;;;3.42;;
77105;SDS011;66057;54.718;18.426;2023-09-19T06:45:07;5.13;;;3.20;;
77105;SDS011;66057;54.718;18.426;2023-09-19T06:47:37;7.75;;;3.50;;
77105;SDS011;66057;54.718;18.426;2023-09-19T06:50:02;3.72;;;2.47;;
77105;SDS011;66057;54.718;18.426;2023-09-19T06:52:30;6.25;;;3.58;;
77105;SDS011;66057;54.718;18.426;2023-09-19T06:54:57;11.20;;;4.13;;
77105;SDS011;66057;54.718;18.426;2023-09-19T06:57:23;6.07;;;2.97;;
77105;SDS011;66057;54.718;18.426;2023-09-19T06:59:48;5.00;;;3.13;;
77105;SDS011;66057;54.718;18.426;2023-09-19T07:02:16;5.47;;;3.28;;
77105;SDS011;66057;54.718;18.426;2023-09-19T07:04:44;6.45;;;3.75;;
77105;SDS011;66057;54.718;18.426;2023-09-19T07:09:38;5.57;;;3.60;;
77105;SDS011;66057;54.718;18.426;2023-09-19T07:12:05;6.68;;;3.50;;
77105;SDS011;66057;54.718;18.426;2023-09-19T07:14:31;10.23;;;4.68;;
77105;SDS011;66057;54.718;18.426;2023-09-19T07:17:01;8.13;;;4.30;;
77105;SDS011;66057;54.718;18.426;2023-09-19T07:19:27;7.05;;;4.75;;
77105;SDS011;66057;54.718;18.426;2023-09-19T07:21:57;5.90;;;3.10;;
77105;SDS011;66057;54.718;18.426;2023-09-19T07:24:24;6.80;;;4.00;;
77105;SDS011;66057;54.718;18.426;2023-09-19T07:26:53;6.05;;;3.45;;
77105;SDS011;66057;54.718;18.426;2023-09-19T07:29:19;7.40;;;3.05;;
77105;SDS011;66057;54.718;18.426;2023-09-19T07:31:47;4.65;;;3.40;;
77105;SDS011;66057;54.718;18.426;2023-09-19T07:34:13;5.00;;;3.15;;
77105;SDS011;66057;54.718;18.426;2023-09-19T07:36:39;7.78;;;3.65;;
77105;SDS011;66057;54.718;18.426;2023-09-19T07:39:09;5.18;;;3.38;;
77105;SDS011;66057;54.718;18.426;2023-09-19T07:41:37;6.35;;;3.38;;
77105;SDS011;66057;54.718;18.426;2023-09-19T07:44:07;6.80;;;3.03;;
77105;SDS011;66057;54.718;18.426;2023-09-19T07:46:35;7.43;;;4.05;;
77105;SDS011;66057;54.718;18.426;2023-09-19T07:51:30;3.80;;;2.97;;
77105;SDS011;66057;54.718;18.426;2023-09-19T07:53:56;7.47;;;3.50;;
77105;SDS011;66057;54.718;18.426;2023-09-19T07:56:22;4.20;;;3.63;;
77105;SDS011;66057;54.718;18.426;2023-09-19T07:58:49;6.40;;;3.25;;
77105;SDS011;66057;54.718;18.426;2023-09-19T08:01:15;7.88;;;3.03;;
77105;SDS011;66057;54.718;18.426;2023-09-19T08:03:41;3.00;;;2.45;;
77105;SDS011;66057;54.718;18.426;2023-09-19T08:06:13;6.28;;;3.00;;
77105;SDS011;66057;54.718;18.426;2023-09-19T08:08:39;3.15;;;2.72;;
77105;SDS011;66057;54.718;18.426;2023-09-19T08:11:09;4.25;;;3.53;;
77105;SDS011;66057;54.718;18.426;2023-09-19T08:13:38;3.35;;;3.05;;
77105;SDS011;66057;54.718;18.426;2023-09-19T08:16:09;4.15;;;2.35;;
77105;SDS011;66057;54.718;18.426;2023-09-19T08:18:36;5.65;;;3.28;;
77105;SDS011;66057;54.718;18.426;2023-09-19T08:21:08;5.85;;;3.05;;
77105;SDS011;66057;54.718;18.426;2023-09-19T08:23:36;6.63;;;2.53;;
77105;SDS011;66057;54.718;18.426;2023-09-19T08:26:06;3.35;;;2.20;;
77105;SDS011;66057;54.718;18.426;2023-09-19T08:28:34;5.57;;;2.80;;
77105;SDS011;66057;54.718;18.426;2023-09-19T08:31:03;3.63;;;2.13;;
77105;SDS011;66057;54.718;18.426;2023-09-19T08:33:33;3.67;;;2.95;;
77105;SDS011;66057;54.718;18.426;2023-09-19T08:36:02;4.32;;;2.35;;
77105;SDS011;66057;54.718;18.426;2023-09-19T08:38:30;3.08;;;2.63;;
77105;SDS011;66057;54.718;18.426;2023-09-19T08:41:04;8.05;;;2.47;;
77105;SDS011;66057;54.718;18.426;2023-09-19T08:43:31;5.32;;;2.40;;
77105;SDS011;66057;54.718;18.426;2023-09-19T08:46:10;4.78;;;2.78;;
77105;SDS011;66057;54.718;18.426;2023-09-19T08:49:24;4.28;;;2.13;;
77105;SDS011;66057;54.718;18.426;2023-09-19T08:51:40;3.17;;;1.90;;
77105;SDS011;66057;54.718;18.426;2023-09-19T08:54:24;2.90;;;1.73;;
77105;SDS011;66057;54.718;18.426;2023-09-19T08:56:55;1.92;;;1.50;;
77105;SDS011;66057;54.718;18.426;2023-09-19T08:59:29;2.33;;;1.77;;
77105;SDS011;66057;54.718;18.426;2023-09-19T09:01:59;2.33;;;1.40;;
77105;SDS011;66057;54.718;18.426;2023-09-19T09:04:25;3.42;;;1.60;;
77105;SDS011;66057;54.718;18.426;2023-09-19T09:06:52;3.25;;;1.70;;
77105;SDS011;66057;54.718;18.426;2023-09-19T09:09:29;2.30;;;1.50;;
77105;SDS011;66057;54.718;18.426;2023-09-19T09:11:55;3.20;;;1.50;;
77105;SDS011;66057;54.718;18.426;2023-09-19T09:14:24;2.83;;;2.08;;
77105;SDS011;66057;54.718;18.426;2023-09-19T09:16:50;4.30;;;1.85;;
77105;SDS011;66057;54.718;18.426;2023-09-19T09:21:50;3.28;;;1.70;;
77105;SDS011;66057;54.718;18.426;2023-09-19T09:24:37;2.78;;;1.40;;
77105;SDS011;66057;54.718;18.426;2023-09-19T09:27:20;3.58;;;1.65;;
77105;SDS011;66057;54.718;18.426;2023-09-19T09:29:52;6.18;;;1.75;;
77105;SDS011;66057;54.718;18.426;2023-09-19T09:34:56;2.28;;;1.52;;
77105;SDS011;66057;54.718;18.426;2023-09-19T09:37:27;1.58;;;1.02;;
77105;SDS011;66057;54.718;18.426;2023-09-19T09:39:59;3.47;;;1.92;;
77105;SDS011;66057;54.718;18.426;2023-09-19T09:42:45;2.28;;;1.40;;
77105;SDS011;66057;54.718;18.426;2023-09-19T09:45:16;4.63;;;1.48;;
77105;SDS011;66057;54.718;18.426;2023-09-19T09:47:59;3.90;;;1.58;;
77105;SDS011;66057;54.718;18.426;2023-09-19T09:50:35;4.18;;;1.10;;
77105;SDS011;66057;54.718;18.426;2023-09-19T09:53:23;3.35;;;1.30;;
77105;SDS011;66057;54.718;18.426;2023-09-19T09:56:08;1.90;;;1.15;;
77105;SDS011;66057;54.718;18.426;2023-09-19T09:58:51;1.88;;;1.20;;
77105;SDS011;66057;54.718;18.426;2023-09-19T10:01:27;2.33;;;1.27;;
77105;SDS011;66057;54.718;18.426;2023-09-19T10:04:12;3.92;;;1.10;;
77105;SDS011;66057;54.718;18.426;2023-09-19T10:07:00;1.48;;;0.90;;
77105;SDS011;66057;54.718;18.426;2023-09-19T10:09:44;4.53;;;0.93;;
77105;SDS011;66057;54.718;18.426;2023-09-19T10:12:10;2.78;;;1.10;;
77105;SDS011;66057;54.718;18.426;2023-09-19T10:14:39;2.92;;;0.95;;
77105;SDS011;66057;54.718;18.426;2023-09-19T10:17:08;2.90;;;1.10;;
77105;SDS011;66057;54.718;18.426;2023-09-19T10:19:37;3.25;;;1.40;;
77105;SDS011;66057;54.718;18.426;2023-09-19T10:22:12;4.80;;;1.60;;
77105;SDS011;66057;54.718;18.426;2023-09-19T10:24:40;3.80;;;1.20;;
77105;SDS011;66057;54.718;18.426;2023-09-19T10:27:09;1.42;;;0.70;;
77105;SDS011;66057;54.718;18.426;2023-09-19T10:29:35;4.00;;;1.63;;
77105;SDS011;66057;54.718;18.426;2023-09-19T10:32:05;4.15;;;1.42;;
77105;SDS011;66057;54.718;18.426;2023-09-19T10:34:36;1.45;;;0.85;;
77105;SDS011;66057;54.718;18.426;2023-09-19T10:37:07;4.03;;;1.42;;
77105;SDS011;66057;54.718;18.426;2023-09-19T10:39:37;4.78;;;1.08;;
77105;SDS011;66057;54.718;18.426;2023-09-19T10:42:06;1.63;;;1.00;;
77105;SDS011;66057;54.718;18.426;2023-09-19T10:44:34;2.08;;;0.77;;
77105;SDS011;66057;54.718;18.426;2023-09-19T10:47:10;2.10;;;1.20;;
77105;SDS011;66057;54.718;18.426;2023-09-19T10:49:46;3.60;;;1.70;;
77105;SDS011;66057;54.718;18.426;2023-09-19T10:52:14;4.25;;;1.50;;
77105;SDS011;66057;54.718;18.426;2023-09-19T10:54:48;3.05;;;1.23;;
77105;SDS011;66057;54.718;18.426;2023-09-19T10:57:28;3.10;;;0.63;;
77105;SDS011;66057;54.718;18.426;2023-09-19T11:06:06;2.25;;;0.52;;
77105;SDS011;66057;54.718;18.426;2023-09-19T11:09:11;4.45;;;0.82;;
77105;SDS011;66057;54.718;18.426;2023-09-19T11:11:49;5.10;;;1.23;;
77105;SDS011;66057;54.718;18.426;2023-09-19T11:30:38;3.45;;;1.10;;
77105;SDS011;66057;54.718;18.426;2023-09-19T11:33:18;3.35;;;1.10;;
77105;SDS011;66057;54.718;18.426;2023-09-19T11:36:17;1.83;;;1.00;;
77105;SDS011;66057;54.718;18.426;2023-09-19T11:43:46;2.00;;;0.93;;
77105;SDS011;66057;54.718;18.426;2023-09-19T11:46:17;1.40;;;0.52;;
77105;SDS011;66057;54.718;18.426;2023-09-19T11:48:47;2.47;;;0.90;;
77105;SDS011;66057;54.718;18.426;2023-09-19T11:51:18;2.22;;;0.80;;
77105;SDS011;66057;54.718;18.426;2023-09-19T11:53:50;2.35;;;0.60;;
77105;SDS011;66057;54.718;18.426;2023-09-19T11:56:17;1.00;;;0.50;;
77105;SDS011;66057;54.718;18.426;2023-09-19T11:58:46;4.00;;;0.75;;
77105;SDS011;66057;54.718;18.426;2023-09-19T12:01:16;4.78;;;0.95;;
77105;SDS011;66057;54.718;18.426;2023-09-19T12:03:52;2.80;;;0.93;;
77105;SDS011;66057;54.718;18.426;2023-09-19T12:08:49;4.65;;;0.75;;
77105;SDS011;66057;54.718;18.426;2023-09-19T12:11:16;3.30;;;0.70;;
77105;SDS011;66057;54.718;18.426;2023-09-19T12:13:46;1.48;;;0.63;;
77105;SDS011;66057;54.718;18.426;2023-09-19T12:18:47;4.32;;;0.88;;
77105;SDS011;66057;54.718;18.426;2023-09-19T12:26:41;1.85;;;0.50;;
77105;SDS011;66057;54.718;18.426;2023-09-19T12:29:12;2.45;;;0.50;;
77105;SDS011;66057;54.718;18.426;2023-09-19T12:34:29;1.88;;;0.40;;
77105;SDS011;66057;54.718;18.426;2023-09-19T12:37:06;3.47;;;0.77;;
77105;SDS011;66057;54.718;18.426;2023-09-19T12:39:50;2.97;;;0.57;;
77105;SDS011;66057;54.718;18.426;2023-09-19T12:42:19;3.13;;;0.70;;
77105;SDS011;66057;54.718;18.426;2023-09-19T12:44:53;2.13;;;0.90;;
77105;SDS011;66057;54.718;18.426;2023-09-19T12:47:23;1.33;;;0.63;;
77105;SDS011;66057;54.718;18.426;2023-09-19T12:50:12;3.10;;;0.95;;
77105;SDS011;66057;54.718;18.426;2023-09-19T12:52:47;2.85;;;0.70;;
77105;SDS011;66057;54.718;18.426;2023-09-19T12:55:27;4.07;;;1.00;;
77105;SDS011;66057;54.718;18.426;2023-09-19T13:00:33;4.47;;;0.90;;
77105;SDS011;66057;54.718;18.426;2023-09-19T13:05:48;7.25;;;1.27;;
77105;SDS011;66057;54.718;18.426;2023-09-19T13:08:24;1.85;;;0.95;;
77105;SDS011;66057;54.718;18.426;2023-09-19T13:14:18;2.03;;;0.47;;
77105;SDS011;66057;54.718;18.426;2023-09-19T13:16:57;4.32;;;0.82;;
77105;SDS011;66057;54.718;18.426;2023-09-19T13:25:17;5.13;;;0.90;;
77105;SDS011;66057;54.718;18.426;2023-09-19T13:27:48;3.40;;;0.75;;
77105;SDS011;66057;54.718;18.426;2023-09-19T13:30:16;4.85;;;0.68;;
77105;SDS011;66057;54.718;18.426;2023-09-19T13:32:44;3.20;;;1.05;;
77105;SDS011;66057;54.718;18.426;2023-09-19T13:35:12;3.97;;;0.90;;
77105;SDS011;66057;54.718;18.426;2023-09-19T13:37:40;3.67;;;1.13;;
77105;SDS011;66057;54.718;18.426;2023-09-19T13:40:10;2.45;;;1.20;;
77105;SDS011;66057;54.718;18.426;2023-09-19T13:42:37;2.25;;;0.95;;
77105;SDS011;66057;54.718;18.426;2023-09-19T13:45:03;4.15;;;1.20;;
77105;SDS011;66057;54.718;18.426;2023-09-19T13:47:33;2.55;;;0.98;;
77105;SDS011;66057;54.718;18.426;2023-09-19T13:49:59;4.60;;;1.45;;
77105;SDS011;66057;54.718;18.426;2023-09-19T13:52:34;2.50;;;0.75;;
77105;SDS011;66057;54.718;18.426;2023-09-19T13:55:00;3.78;;;1.27;;
77105;SDS011;66057;54.718;18.426;2023-09-19T13:57:27;2.90;;;1.15;;
77105;SDS011;66057;54.718;18.426;2023-09-19T13:59:54;2.72;;;1.10;;
77105;SDS011;66057;54.718;18.426;2023-09-19T14:02:21;3.78;;;1.08;;
77105;SDS011;66057;54.718;18.426;2023-09-19T14:04:51;3.70;;;1.20;;
77105;SDS011;66057;54.718;18.426;2023-09-19T14:07:17;5.78;;;1.50;;
77105;SDS011;66057;54.718;18.426;2023-09-19T14:09:45;3.40;;;1.10;;
77105;SDS011;66057;54.718;18.426;2023-09-19T14:12:14;2.58;;;0.95;;
77105;SDS011;66057;54.718;18.426;2023-09-19T14:14:40;2.75;;;0.90;;
77105;SDS011;66057;54.718;18.426;2023-09-19T14:17:07;2.75;;;1.75;;
77105;SDS011;66057;54.718;18.426;2023-09-19T14:19:34;2.70;;;1.00;;
77105;SDS011;66057;54.718;18.426;2023-09-19T14:22:03;4.72;;;0.90;;
77105;SDS011;66057;54.718;18.426;2023-09-19T14:24:33;3.10;;;1.08;;
77105;SDS011;66057;54.718;18.426;2023-09-19T14:26:59;2.15;;;1.25;;
77105;SDS011;66057;54.718;18.426;2023-09-19T14:29:24;3.17;;;1.08;;
77105;SDS011;66057;54.718;18.426;2023-09-19T14:31:50;1.90;;;0.82;;
77105;SDS011;66057;54.718;18.426;2023-09-19T14:34:20;3.13;;;1.70;;
77105;SDS011;66057;54.718;18.426;2023-09-19T14:36:46;5.07;;;1.35;;
77105;SDS011;66057;54.718;18.426;2023-09-19T14:39:12;2.22;;;1.13;;
77105;SDS011;66057;54.718;18.426;2023-09-19T14:41:45;4.75;;;1.50;;
77105;SDS011;66057;54.718;18.426;2023-09-19T14:44:11;5.00;;;1.48;;
77105;SDS011;66057;54.718;18.426;2023-09-19T14:46:37;3.95;;;1.35;;
77105;SDS011;66057;54.718;18.426;2023-09-19T14:49:05;7.50;;;1.88;;
77105;SDS011;66057;54.718;18.426;2023-09-19T14:51:31;3.30;;;1.63;;
77105;SDS011;66057;54.718;18.426;2023-09-19T14:53:57;1.92;;;0.80;;
77105;SDS011;66057;54.718;18.426;2023-09-19T14:56:24;2.33;;;1.00;;
77105;SDS011;66057;54.718;18.426;2023-09-19T14:58:50;2.55;;;0.73;;
77105;SDS011;66057;54.718;18.426;2023-09-19T15:01:16;3.10;;;0.90;;
77105;SDS011;66057;54.718;18.426;2023-09-19T15:06:10;3.42;;;0.85;;
77105;SDS011;66057;54.718;18.426;2023-09-19T15:08:40;5.57;;;1.33;;
77105;SDS011;66057;54.718;18.426;2023-09-19T15:11:11;6.80;;;1.42;;
77105;SDS011;66057;54.718;18.426;2023-09-19T15:13:37;3.55;;;1.00;;
77105;SDS011;66057;54.718;18.426;2023-09-19T15:16:07;2.85;;;1.10;;
77105;SDS011;66057;54.718;18.426;2023-09-19T15:18:37;6.22;;;1.00;;
77105;SDS011;66057;54.718;18.426;2023-09-19T15:21:09;3.70;;;0.82;;
77105;SDS011;66057;54.718;18.426;2023-09-19T15:23:36;2.78;;;0.80;;
77105;SDS011;66057;54.718;18.426;2023-09-19T15:26:04;3.35;;;0.82;;
77105;SDS011;66057;54.718;18.426;2023-09-19T15:28:31;4.18;;;1.20;;
77105;SDS011;66057;54.718;18.426;2023-09-19T15:31:02;3.45;;;0.73;;
77105;SDS011;66057;54.718;18.426;2023-09-19T15:33:30;3.08;;;0.90;;
77105;SDS011;66057;54.718;18.426;2023-09-19T15:36:06;4.93;;;1.60;;
77105;SDS011;66057;54.718;18.426;2023-09-19T15:41:25;7.00;;;2.03;;
77105;SDS011;66057;54.718;18.426;2023-09-19T15:44:10;6.15;;;1.77;;
77105;SDS011;66057;54.718;18.426;2023-09-19T15:46:38;5.85;;;1.40;;
77105;SDS011;66057;54.718;18.426;2023-09-19T15:49:03;2.47;;;0.90;;
77105;SDS011;66057;54.718;18.426;2023-09-19T15:51:29;5.57;;;0.98;;
77105;SDS011;66057;54.718;18.426;2023-09-19T15:53:58;5.13;;;1.10;;
77105;SDS011;66057;54.718;18.426;2023-09-19T15:56:25;4.88;;;1.15;;
77105;SDS011;66057;54.718;18.426;2023-09-19T16:01:19;2.83;;;1.10;;
77105;SDS011;66057;54.718;18.426;2023-09-19T16:03:46;2.40;;;1.08;;
77105;SDS011;66057;54.718;18.426;2023-09-19T16:06:18;3.92;;;1.08;;
77105;SDS011;66057;54.718;18.426;2023-09-19T16:08:48;3.47;;;1.15;;
77105;SDS011;66057;54.718;18.426;2023-09-19T16:11:17;3.13;;;1.73;;
77105;SDS011;66057;54.718;18.426;2023-09-19T16:13:50;6.05;;;2.13;;
77105;SDS011;66057;54.718;18.426;2023-09-19T16:16:22;3.70;;;1.60;;
77105;SDS011;66057;54.718;18.426;2023-09-19T16:18:57;5.53;;;1.08;;
77105;SDS011;66057;54.718;18.426;2023-09-19T16:21:31;5.15;;;1.70;;
77105;SDS011;66057;54.718;18.426;2023-09-19T16:24:02;3.67;;;1.98;;
77105;SDS011;66057;54.718;18.426;2023-09-19T16:26:30;8.82;;;2.15;;
77105;SDS011;66057;54.718;18.426;2023-09-19T16:29:11;5.03;;;1.60;;
77105;SDS011;66057;54.718;18.426;2023-09-19T16:31:40;4.68;;;1.08;;
77105;SDS011;66057;54.718;18.426;2023-09-19T16:34:08;5.55;;;1.10;;